This is the latest recevied weather packets stored in our database for station/object OE3APM-13. If no packets are shown the sender has not sent any weather packets the latest 1 day(s).
| Time | Temp. | Humidity | Pressure | Rain* | Wind** | Luminosity | Snow |
|---|---|---|---|---|---|---|---|
| 1778103272 | 13.33° C | 81% | 1006.5 hPa | 0 mm | - | 0 W/m² | - |
| 1778102672 | 13.89° C | 80% | 1006.1 hPa | 0 mm | - | 0 W/m² | - |
| 1778101172 | 14.44° C | 78% | 1005.9 hPa | 0 mm | - | 0 W/m² | - |
| 1778099970 | 14.44° C | 76% | 1006.1 hPa | 0 mm | - | 0 W/m² | - |
| 1778098770 | 15° C | 75% | 1006.1 hPa | 0 mm | - | 0 W/m² | - |
| 1778097866 | 15.56° C | 72% | 1006 hPa | 0 mm | - | 0 W/m² | - |
| 1778097265 | 16.11° C | 69% | 1005.7 hPa | 0 mm | - | 0 W/m² | - |
| 1778096964 | 16.67° C | 68% | 1005.6 hPa | 0 mm | - | 0 W/m² | - |
| 1778096664 | 17.22° C | 65% | 1005.5 hPa | 0 mm | - | 0 W/m² | - |
| 1778094553 | 17.22° C | 55% | 1004.1 hPa | 0 mm | - | 0 W/m² | - |
| 1778093350 | 18.33° C | 52% | 1003.7 hPa | 0 mm | - | 0 W/m² | - |
| 1778092750 | 18.89° C | 50% | 1003.3 hPa | 0 mm | - | 0 W/m² | - |
| 1778092451 | 19.44° C | 50% | 1003.2 hPa | 0 mm | - | 0 W/m² | - |
| 1778091244 | 20° C | 46% | 1002.7 hPa | 0 mm | - | 0 W/m² | - |
| 1778090644 | 20.56° C | 45% | 1002.6 hPa | 0 mm | - | 0 W/m² | - |
| 1778089742 | 21.67° C | 44% | 1002.8 hPa | 0 mm | - | 11 W/m² | - |
| 1778088535 | 22.22° C | 41% | 1002.7 hPa | 0 mm | - | 23 W/m² | - |
| 1778087029 | 23.33° C | 38% | 1002.7 hPa | 0 mm | - | 109 W/m² | - |
| 1778086726 | 23.33° C | 39% | 1002.8 hPa | 0 mm | - | 141 W/m² | - |
| 1778086427 | 23.33° C | 39% | 1002.9 hPa | 0 mm | - | 156 W/m² | - |
| 1778085825 | 23.89° C | 40% | 1002.9 hPa | 0 mm | - | 186 W/m² | - |
| 1778085220 | 23.33° C | 42% | 1002.9 hPa | 0 mm | - | 227 W/m² | - |
| 1778084016 | 22.78° C | 43% | 1003.2 hPa | 0 mm | - | 199 W/m² | - |
| 1778083711 | 22.78° C | 43% | 1003.2 hPa | 0 mm | - | 271 W/m² | - |
| 1778083103 | 23.33° C | 44% | 1003.3 hPa | 0 mm | - | 128 W/m² | - |
* Rain latest hour (hover to see other rain measurements)
** Current wind speed in m/s (hover to see current wind gust speed)